OVERFALLS Weather Reports


Display with metric or nautical units.
time (UTC)temp
F
wind
direction
speed
MPH
gust
MPH
rain 1hr
in
rain 24hr
in
rain mn
in
humidity
%
barometer
mb
20231211001601 63 198 12.0 28.0 0.03 0.31 0.31 94 1006.7
20231211000105 62 175 12.0 24.0 0.00 0.27 0.27 94 1006.6
20231210234542 62 170 13.0 28.0 0.00 0.27 0.27 94 1006.9
20231210233042 62 183 11.0 25.0 0.00 0.27 0.27 95 1007.2
20231210231548 61 163 7.0 20.0 0.00 0.27 0.27 95 1007.4
20231210230047 61 189 6.0 13.0 0.00 0.26 0.26 94 1008.0
20231210224543 61 176 8.0 24.0 0.01 0.26 0.26 94 1008.0
20231210223044 61 198 7.0 20.0 0.02 0.26 0.26 93 1008.5
20231210221538 62 150 7.0 13.0 0.03 0.26 0.26 93 1008.5
20231210220048 63 185 10.0 21.0 0.03 0.25 0.25 93 1008.7
20231210214546 63 173 11.0 29.0 0.02 0.25 0.25 93 1009.0
20231210213044 63 188 14.0 26.0 0.02 0.24 0.24 92 1009.3
20231210211537 63 144 14.0 29.0 0.01 0.23 0.23 92 1009.5
20231210210040 63 190 14.0 27.0 0.00 0.22 0.22 92 1009.6
20231210204545 63 137 9.0 20.0 0.01 0.22 0.22 93 1009.6
20231210203040 63 181 10.0 23.0 0.00 0.22 0.22 93 1009.7
20231210201606 63 197 8.0 14.0 0.00 0.22 0.22 93 1009.7
20231210200049 63 194 7.0 14.0 0.00 0.22 0.22 93 1010.0
20231210194537 63 180 7.0 13.0 0.00 0.21 0.21 92 1010.6
20231210193039 63 218 7.0 17.0 0.00 0.21 0.21 92 1010.7
20231210191541 63 183 7.0 22.0 0.00 0.21 0.21 92 1010.5
20231210190038 63 184 9.0 22.0 0.07 0.21 0.21 92 1010.8
20231210184553 63 195 12.0 24.0 0.14 0.21 0.21 92 1011.1
20231210183037 62 182 9.0 22.0 0.19 0.21 0.21 93 1011.0
20231210181546 62 187 8.0 17.0 0.20 0.20 0.20 92 1010.9
20231210180103 62 190 7.0 16.0 0.13 0.13 0.13 91 1012.1
20231210174555 63 189 8.0 16.0 0.06 0.06 0.06 89 1012.5
20231210173044 64 194 9.0 28.0 0.01 0.01 0.01 87 1012.4
20231210171550 65 178 9.0 24.0 0.00 0.00 0.00 85 1012.3
20231210170048 66 177 11.0 20.0 0.00 0.00 0.00 83 1012.5
20231210164557 67 183 7.0 17.0 0.00 0.00 0.00 83 1013.0
20231210163054 67 174 11.0 23.0 0.00 0.00 0.00 83 1013.4
20231210161543 69 135 10.0 25.0 0.00 0.00 0.00 80 1013.5
20231210160052 69 211 11.0 21.0 0.00 0.00 0.00 81 1013.8
20231210154540 68 186 6.0 19.0 0.00 0.00 0.00 82 1014.4
20231210153045 67 211 10.0 19.0 0.00 0.00 0.00 83 1015.0
20231210151546 66 202 8.0 21.0 0.00 0.00 0.00 84 1015.5
20231210150047 66 166 8.0 20.0 0.00 0.00 0.00 84 1015.7
20231210144539 66 196 7.0 16.0 0.00 0.00 0.00 84 1016.0
20231210143044 64 176 8.0 19.0 0.00 0.00 0.00 86 1016.1
20231210141535 63 198 6.0 13.0 0.00 0.00 0.00 87 1016.2
20231210140038 62 188 6.0 13.0 0.00 0.00 0.00 89 1016.0
20231210134547 61 171 5.0 13.0 0.00 0.00 0.00 89 1015.9
20231210133044 61 182 7.0 15.0 0.00 0.00 0.00 89 1016.0
20231210131537 61 125 7.0 17.0 0.00 0.00 0.00 89 1016.2
20231210130053 60 204 6.0 12.0 0.00 0.00 0.00 90 1016.2
20231210124550 60 163 8.0 15.0 0.00 0.00 0.00 90 1016.1
20231210123038 59 192 5.0 10.0 0.00 0.00 0.00 90 1016.1
20231210121539 59 190 3.0 9.0 0.00 0.00 0.00 90 1016.3
20231210120038 59 199 4.0 13.0 0.00 0.00 0.00 89 1016.3
20231210114540 59 171 3.0 9.0 0.00 0.00 0.00 88 1016.3
20231210113053 60 181 5.0 11.0 0.00 0.00 0.00 88 1016.5
20231210111539 59 196 3.0 10.0 0.00 0.00 0.00 88 1016.6
20231210110042 59 172 4.0 8.0 0.00 0.00 0.00 89 1016.6
20231210104539 58 201 3.0 9.0 0.00 0.00 0.00 88 1016.8
20231210103043 59 197 3.0 7.0 0.00 0.00 0.00 88 1016.8
20231210101543 59 184 4.0 7.0 0.00 0.00 0.00 87 1016.8
20231210100054 59 209 2.0 7.0 0.00 0.00 0.00 87 1016.6
20231210094536 60 196 4.0 8.0 0.00 0.00 0.00 86 1016.6
20231210093049 60 221 4.0 8.0 0.00 0.00 0.00 86 1016.7
20231210091538 60 182 4.0 10.0 0.00 0.00 0.00 85 1016.8
20231210090048 60 199 5.0 10.0 0.00 0.00 0.00 85 1016.9
20231210084543 61 194 4.0 13.0 0.00 0.00 0.00 84 1017.3
20231210083045 61 200 6.0 12.0 0.00 0.00 0.00 84 1017.3
20231210081537 60 211 5.0 14.0 0.00 0.00 0.00 84 1017.4
20231210080046 60 196 6.0 14.0 0.00 0.00 0.00 84 1017.5
20231210074550 60 163 6.0 14.0 0.00 0.00 0.00 83 1017.7
20231210073043 60 155 6.0 13.0 0.00 0.00 0.00 83 1017.9
20231210071539 60 187 6.0 12.0 0.00 0.00 0.00 82 1018.3
20231210070039 60 202 5.0 14.0 0.00 0.00 0.00 82 1018.7
20231210064546 60 192 5.0 14.0 0.00 0.00 0.00 82 1018.7
20231210063043 60 175 6.0 15.0 0.00 0.00 0.00 81 1018.7
20231210061555 59 176 6.0 16.0 0.00 0.00 0.00 81 1019.0
20231210060052 59 186 6.0 15.0 0.00 0.00 0.00 82 1019.2
20231210054530 58 211 6.0 14.0 0.00 0.00 0.00 82 1019.2
20231210053034 58 174 4.0 10.0 0.00 0.00 0.00 83 1019.5
20231210051545 57 181 5.0 9.0 0.00 0.00 0.00 83 1019.7
20231210050050 57 205 4.0 8.0 0.00 0.00 0.00 83 1019.9
20231210044534 57 173 3.0 9.0 0.00 0.00 0.00 82 1020.1
20231210043035 57 211 4.0 10.0 0.00 0.00 0.00 82 1020.2
20231210041537 57 184 4.0 8.0 0.00 0.00 0.00 82 1020.4
20231210040041 57 188 3.0 10.0 0.00 0.00 0.00 81 1020.5
20231210034537 57 181 4.0 8.0 0.00 0.00 0.00 81 1020.6
20231210033038 56 203 3.0 8.0 0.00 0.00 0.00 82 1020.6
20231210031537 56 180 6.0 11.0 0.00 0.00 0.00 82 1020.5
20231210030039 55 188 5.0 9.0 0.00 0.00 0.00 82 1020.6
20231210024537 55 186 4.0 9.0 0.00 0.00 0.00 82 1020.8
20231210023040 55 211 5.0 9.0 0.00 0.00 0.00 82 1020.8
20231210021550 54 195 4.0 9.0 0.00 0.00 0.00 81 1021.1
20231210020047 54 215 3.0 7.0 0.00 0.00 0.00 80 1021.3
20231210014545 53 187 4.0 10.0 0.00 0.00 0.00 79 1021.4
20231210013043 53 180 3.0 6.0 0.00 0.00 0.00 78 1021.6
20231210011536 53 169 2.0 6.0 0.00 0.00 0.00 77 1021.5
20231210010051 53 129 0.0 3.0 0.00 0.00 0.00 77 1021.7
20231210004543 53 118 0.0 3.0 0.00 0.00 0.00 76 1021.8
20231210003036 53 117 2.0 4.0 0.00 0.00 0.00 75 1021.9